Terminal Aerodrome Forecast
Issued by NWS

Home | Current Version | Previous Version | Text Only | Print | Product List | Glossary On
Versions: 1 2 3 4 5 6 7 8 9 10 11 12 13 14 15 16 17 18 19
127
FTUS46 KMFR 261502 AAA
TAFLMT
TAF AMD
KLMT 261502Z 2615/2712 17006KT P6SM -RA SCT005 OVC020
      TEMPO 2615/2618 4SM -RA BR OVC005
     FM261800 18015G25KT P6SM -RA SCT020 OVC040
     FM270100 22013KT P6SM -SHRA SCT010 OVC020
     FM270500 24005KT P6SM VCSH SCT020 OVC040=

USA.gov is the U.S. government's official web portal to all federal, state and local government web resources and services.